Dudley, Indiana
Current Conditions -  °F | °C
As of 9:53 PM on Sunday 21 Dec 2014 (Local Time) from KMIE Reporting Station
Clear Clear  
Wind Chill: 23°   Ceiling: Unl
Heat Index: 30°   Visibility: 7mi
Dew Point: 25°   Wind: 7mph
Humidity: 82%   Direction: 150°SSE
Pressure: 30.13"   Gusts: NA
Location:  39.8307°N, 85.2704°W
Report Text: KMIE 220253Z 15006KT 7SM CLR M01/M04 A3013 RMK AO2 SLP209 T10111039 56008
Loading
Personal Weather Stations






























Interactive Weather Map New forecast layout! Learn more

10-Day Weather Forecast

Advertisements
Track Severe Weather on mobile